Time;durP1;ratioP1;P1;durP2;ratioP2;P2;SDS_P1;SDS_P2;PMS_P1;PMS_P2;Temp;Humidity;BMP_temperature;BMP_pressure;BME280_temperature;BME280_humidity;BME280_pressure;Samples;Min_cycle;Max_cycle;Signal;HPM_P1;HPM_P2
2022/05/31 00:00:35;;;;;;;;;;;;;;;;;;4994057;28;1337;-73
2022/05/31 00:03:02;;;;;;;;;;;;;;;;;;4993534;28;1140;-73
2022/05/31 00:05:28;;;;;;;;;;;;;;;;;;4993646;28;1131;-73
2022/05/31 00:07:55;;;;;;;;;;;;;;;;;;4993209;28;1046;-73
2022/05/31 00:10:21;;;;;;;;;;;;;;;;;;4993608;28;862;-73
2022/05/31 00:12:49;;;;;;;;;;;;;;;;;;4993354;28;1351;-73
2022/05/31 00:15:15;;;;;;;;;;;;;;;;;;4976276;28;1254;-73
2022/05/31 00:17:42;;;;;;;;;;;;;;;;;;4982821;28;1914;-74
2022/05/31 00:20:09;;;;;;;;;;;;;;;;;;5012832;28;1104;-73
2022/05/31 00:22:36;;;;;;;;;;;;;;;;;;5012766;28;1309;-73
2022/05/31 00:25:02;;;;;;;;;;;;;;;;;;4994823;28;1186;-73
2022/05/31 00:27:28;;;;;;;;;;;;;;;;;;5012767;28;830;-73
2022/05/31 00:29:56;;;;;;;;;;;;;;;;;;5012571;28;1147;-73
2022/05/31 00:32:23;;;;;;;;;;;;;;;;;;5012673;28;1396;-74
2022/05/31 00:34:50;;;;;;;;;;;;;;;;;;5012694;28;1007;-73
2022/05/31 00:37:16;;;;;;;;;;;;;;;;;;4994926;28;1912;-74
2022/05/31 00:39:42;;;;;;;;;;;;;;;;;;5012643;28;811;-73
2022/05/31 00:42:11;;;;;;;;;;;;;;;;;;5012220;28;1314;-72
2022/05/31 00:44:37;;;;;;;;;;;;;;;;;;5012304;28;858;-72
2022/05/31 00:47:06;;;;;;;;;;;;;;;;;;5012073;28;800;-73
2022/05/31 00:49:33;;;;;;;;;;;;;;;;;;5012481;28;938;-74
2022/05/31 00:52:00;;;;;;;;;;;;;;;;;;5012186;28;1421;-72
2022/05/31 00:54:27;;;;;;;;;;;;;;;;;;4994739;28;1906;-73
2022/05/31 00:56:54;;;;;;;;;;;;;;;;;;5012022;28;659;-73
2022/05/31 00:59:20;;;;;;;;;;;;;;;;;;4994566;28;1972;-73
2022/05/31 01:01:51;;;;;;;;;;;;;;;;;;5010748;28;1325;-73
2022/05/31 01:04:19;;;;;;;;;;;;;;;;;;4994692;28;1231;-73
2022/05/31 01:06:45;;;;;;;;;;;;;;;;;;4994346;28;1295;-74
2022/05/31 01:09:13;;;;;;;;;;;;;;;;;;4994402;28;878;-73
2022/05/31 01:11:59;;;;;;;;;;;;;;;;;;5011860;28;1456;-73
2022/05/31 01:14:48;;;;;;;;;;;;;;;;;;4983506;28;1314;-72
2022/05/31 01:17:15;;;;;;;;;;;;;;;;;;5011403;28;1087;-73
2022/05/31 01:20:16;;;;;;;;;;;;;;;;;;5011410;28;1152;-72
2022/05/31 01:22:51;;;;;;;;;;;;;;;;;;4993986;28;1438;-74
2022/05/31 01:25:24;;;;;;;;;;;;;;;;;;5011984;28;786;-73
2022/05/31 01:27:51;;;;;;;;;;;;;;;;;;4994237;28;1430;-73
2022/05/31 01:30:18;;;;;;;;;;;;;;;;;;4994018;28;1270;-73
2022/05/31 01:32:46;;;;;;;;;;;;;;;;;;4993825;28;1396;-73
2022/05/31 01:35:14;;;;;;;;;;;;;;;;;;4993920;28;1165;-73
2022/05/31 01:37:45;;;;;;;;;;;;;;;;;;4993537;28;1993;-73
2022/05/31 01:40:12;;;;;;;;;;;;;;;;;;4994049;28;1155;-74
2022/05/31 01:42:40;;;;;;;;;;;;;;;;;;5011421;28;1313;-74
2022/05/31 01:45:08;;;;;;;;;;;;;;;;;;5011234;28;848;-74
2022/05/31 01:47:34;;;;;;;;;;;;;;;;;;4993477;28;1381;-74
2022/05/31 01:50:00;;;;;;;;;;;;;;;;;;4993683;28;1123;-74
2022/05/31 01:52:26;;;;;;;;;;;;;;;;;;4993592;28;1412;-73
2022/05/31 01:54:54;;;;;;;;;;;;;;;;;;4993659;28;1237;-73
2022/05/31 01:57:20;;;;;;;;;;;;;;;;;;4993248;28;1163;-74
2022/05/31 01:59:47;;;;;;;;;;;;;;;;;;4993181;28;1969;-74
2022/05/31 02:02:15;;;;;;;;;;;;;;;;;;4993313;28;1507;-74
2022/05/31 02:04:41;;;;;;;;;;;;;;;;;;4993507;28;1231;-74
2022/05/31 02:07:11;;;;;;;;;;;;;;;;;;4993287;28;1297;-74
2022/05/31 02:09:40;;;;;;;;;;;;;;;;;;4993139;28;1174;-74
2022/05/31 02:12:08;;;;;;;;;;;;;;;;;;4993105;28;1578;-74
2022/05/31 02:14:38;;;;;;;;;;;;;;;;;;4993165;28;1329;-73
2022/05/31 02:17:05;;;;;;;;;;;;;;;;;;4992643;28;1145;-74
2022/05/31 02:19:59;;;;;;;;;;;;;;;;;;5007438;28;1984;-74
2022/05/31 02:22:33;;;;;;;;;;;;;;;;;;5010767;28;1370;-73
2022/05/31 02:25:00;;;;;;;;;;;;;;;;;;4993173;28;1289;-74
2022/05/31 02:27:29;;;;;;;;;;;;;;;;;;4992981;28;1479;-73
2022/05/31 02:29:56;;;;;;;;;;;;;;;;;;5010574;28;1076;-73
2022/05/31 02:32:22;;;;;;;;;;;;;;;;;;4988015;28;2248;-74
2022/05/31 02:34:48;;;;;;;;;;;;;;;;;;5003066;28;1385;-74
2022/05/31 02:37:19;;;;;;;;;;;;;;;;;;5004695;28;1562;-74
2022/05/31 02:39:46;;;;;;;;;;;;;;;;;;5012759;28;1971;-74
2022/05/31 02:42:12;;;;;;;;;;;;;;;;;;5030093;28;1400;-74
2022/05/31 02:44:40;;;;;;;;;;;;;;;;;;5012402;28;1246;-73
2022/05/31 02:47:07;;;;;;;;;;;;;;;;;;5012492;28;1155;-71
2022/05/31 02:49:33;;;;;;;;;;;;;;;;;;5012656;28;1459;-74
2022/05/31 02:52:00;;;;;;;;;;;;;;;;;;5030150;28;1309;-74
2022/05/31 02:54:27;;;;;;;;;;;;;;;;;;5012443;28;1297;-73
2022/05/31 02:57:12;;;;;;;;;;;;;;;;;;5029972;28;652;-73
2022/05/31 02:59:59;;;;;;;;;;;;;;;;;;5030163;28;1911;-73
2022/05/31 03:02:45;;;;;;;;;;;;;;;;;;5029854;28;1429;-74
2022/05/31 03:05:30;;;;;;;;;;;;;;;;;;5030435;28;713;-74
2022/05/31 03:08:11;;;;;;;;;;;;;;;;;;5012144;28;1484;-74
2022/05/31 03:11:03;;;;;;;;;;;;;;;;;;5012590;28;1586;-74
2022/05/31 03:13:31;;;;;;;;;;;;;;;;;;5012128;28;1168;-74
2022/05/31 03:16:00;;;;;;;;;;;;;;;;;;5012124;28;1172;-74
2022/05/31 03:18:27;;;;;;;;;;;;;;;;;;5011932;28;1908;-73
2022/05/31 03:20:54;;;;;;;;;;;;;;;;;;5012148;28;1391;-74
2022/05/31 03:23:20;;;;;;;;;;;;;;;;;;5012027;28;1168;-74
2022/05/31 03:25:47;;;;;;;;;;;;;;;;;;5013953;28;1195;-74
2022/05/31 03:28:13;;;;;;;;;;;;;;;;;;5033262;28;1068;-74
2022/05/31 03:30:39;;;;;;;;;;;;;;;;;;5033294;28;1371;-73
2022/05/31 03:33:07;;;;;;;;;;;;;;;;;;5033625;28;851;-73
2022/05/31 03:35:33;;;;;;;;;;;;;;;;;;5033584;28;1115;-73
2022/05/31 03:38:06;;;;;;;;;;;;;;;;;;5015553;28;1196;-74
2022/05/31 03:40:58;;;;;;;;;;;;;;;;;;5015620;28;1388;-73
2022/05/31 03:43:46;;;;;;;;;;;;;;;;;;5031078;22;3605;-69
2022/05/31 03:46:21;;;;;;;;;;;;;;;;;;5031523;28;983;-69
2022/05/31 03:49:18;;;;;;;;;;;;;;;;;;5032086;28;1136;-70
2022/05/31 03:51:49;;;;;;;;;;;;;;;;;;5031964;28;1242;-69
2022/05/31 03:54:22;;;;;;;;;;;;;;;;;;5031880;28;1585;-70
2022/05/31 03:57:16;;;;;;;;;;;;;;;;;;5032817;28;1046;-69
2022/05/31 03:59:45;;;;;;;;;;;;;;;;;;5031989;28;1914;-70
2022/05/31 04:02:11;;;;;;;;;;;;;;;;;;5031908;28;1317;-69
2022/05/31 04:04:40;;;;;;;;;;;;;;;;;;5031700;28;1308;-70
2022/05/31 04:07:07;;;;;;;;;;;;;;;;;;5031790;28;1829;-70
2022/05/31 04:09:34;;;;;;;;;;;;;;;;;;5031604;28;1333;-68
2022/05/31 04:12:03;;;;;;;;;;;;;;;;;;5031611;28;1317;-68
2022/05/31 04:14:53;;;;;;;;;;;;;;;;;;5004752;28;1376;-68
2022/05/31 04:17:20;;;;;;;;;;;;;;;;;;5032448;28;1379;-70
2022/05/31 04:19:47;;;;;;;;;;;;;;;;;;5033183;28;1922;-70
2022/05/31 04:22:13;;;;;;;;;;;;;;;;;;5032055;28;1204;-69
2022/05/31 04:24:40;;;;;;;;;;;;;;;;;;5031291;28;1309;-69
2022/05/31 04:27:38;;;;;;;;;;;;;;;;;;5032031;28;1440;-69
2022/05/31 04:30:23;;;;;;;;;;;;;;;;;;5013032;28;759;-69
2022/05/31 04:33:12;;;;;;;;;;;;;;;;;;5012550;28;1301;-69
2022/05/31 04:35:41;;;;;;;;;;;;;;;;;;4995103;28;1520;-69
2022/05/31 04:38:08;;;;;;;;;;;;;;;;;;4994773;28;1651;-69
2022/05/31 04:40:47;;;;;;;;;;;;;;;;;;4994484;28;1987;-69
2022/05/31 04:43:19;;;;;;;;;;;;;;;;;;5012391;28;1369;-69
2022/05/31 04:46:10;;;;;;;;;;;;;;;;;;5012772;28;618;-68
2022/05/31 04:48:42;;;;;;;;;;;;;;;;;;4994828;28;1232;-69
2022/05/31 04:51:10;;;;;;;;;;;;;;;;;;4995217;28;1237;-70
2022/05/31 04:53:44;;;;;;;;;;;;;;;;;;4994625;28;1329;-69
2022/05/31 04:56:22;;;;;;;;;;;;;;;;;;4994375;28;1253;-69
2022/05/31 04:58:49;;;;;;;;;;;;;;;;;;4994784;28;1969;-69
2022/05/31 05:01:16;;;;;;;;;;;;;;;;;;5012036;28;763;-69
2022/05/31 05:03:46;;;;;;;;;;;;;;;;;;4994631;28;1388;-70
2022/05/31 05:06:15;;;;;;;;;;;;;;;;;;5011908;28;881;-69
2022/05/31 05:08:44;;;;;;;;;;;;;;;;;;4994663;28;996;-68
2022/05/31 05:11:12;;;;;;;;;;;;;;;;;;4994507;28;1259;-69
2022/05/31 05:13:44;;;;;;;;;;;;;;;;;;4994404;28;1497;-69
2022/05/31 05:16:33;;;;;;;;;;;;;;;;;;5011633;28;1030;-70
2022/05/31 05:18:59;;;;;;;;;;;;;;;;;;4994417;28;1907;-69
2022/05/31 05:21:26;;;;;;;;;;;;;;;;;;4994419;28;1200;-69
2022/05/31 05:23:55;;;;;;;;;;;;;;;;;;4994165;28;1504;-70
2022/05/31 05:26:29;;;;;;;;;;;;;;;;;;4994285;28;1496;-69
2022/05/31 05:32:05;;;;;;;;;;;;;;;;;;4993953;28;1598;-69
2022/05/31 05:34:37;;;;;;;;;;;;;;;;;;5011270;28;1315;-69
2022/05/31 05:37:16;;;;;;;;;;;;;;;;;;4993798;28;1388;-69
2022/05/31 05:39:43;;;;;;;;;;;;;;;;;;4993918;28;1928;-69
2022/05/31 05:42:28;;;;;;;;;;;;;;;;;;5011706;28;692;-69
2022/05/31 05:45:07;;;;;;;;;;;;;;;;;;5011509;28;1396;-69
2022/05/31 05:47:33;;;;;;;;;;;;;;;;;;5010645;28;1142;-69
2022/05/31 05:49:59;;;;;;;;;;;;;;;;;;4993715;28;1307;-69
2022/05/31 05:52:48;;;;;;;;;;;;;;;;;;4979974;28;1314;-68
2022/05/31 05:55:33;;;;;;;;;;;;;;;;;;5011715;28;653;-70
2022/05/31 05:58:37;;;;;;;;;;;;;;;;;;5011182;28;749;-69
2022/05/31 06:01:23;;;;;;;;;;;;;;;;;;5011399;28;662;-70
2022/05/31 06:03:59;;;;;;;;;;;;;;;;;;4993543;28;1462;-69
2022/05/31 06:06:25;;;;;;;;;;;;;;;;;;4993251;28;1281;-69
2022/05/31 06:08:53;;;;;;;;;;;;;;;;;;4993222;28;1228;-69
2022/05/31 06:11:20;;;;;;;;;;;;;;;;;;5011310;28;1107;-69
2022/05/31 06:13:46;;;;;;;;;;;;;;;;;;5011077;28;1390;-68
2022/05/31 06:16:13;;;;;;;;;;;;;;;;;;4993099;28;2108;-70
2022/05/31 06:18:41;;;;;;;;;;;;;;;;;;4993244;28;1215;-69
2022/05/31 06:21:07;;;;;;;;;;;;;;;;;;5020603;28;1966;-70
2022/05/31 06:23:36;;;;;;;;;;;;;;;;;;5012460;28;1385;-69
2022/05/31 06:26:04;;;;;;;;;;;;;;;;;;5013045;28;1295;-69
2022/05/31 06:28:44;;;;;;;;;;;;;;;;;;5012627;28;2724;-69
2022/05/31 06:31:11;;;;;;;;;;;;;;;;;;5012698;28;1355;-69
2022/05/31 06:33:38;;;;;;;;;;;;;;;;;;5012867;28;1416;-70
2022/05/31 06:36:07;;;;;;;;;;;;;;;;;;5012689;28;1331;-69
2022/05/31 06:38:33;;;;;;;;;;;;;;;;;;5012491;28;1513;-70
2022/05/31 06:41:00;;;;;;;;;;;;;;;;;;5012582;28;1918;-70
2022/05/31 06:44:02;;;;;;;;;;;;;;;;;;5030119;28;1379;-70
2022/05/31 06:46:47;;;;;;;;;;;;;;;;;;5030269;28;620;-70
2022/05/31 06:49:48;;;;;;;;;;;;;;;;;;5029961;28;1223;-70
2022/05/31 06:58:50;;;;;;;;;;;;;;;;;;5030052;28;1046;-69
2022/05/31 07:01:20;;;;;;;;;;;;;;;;;;5015161;28;1977;-70
2022/05/31 07:03:46;;;;;;;;;;;;;;;;;;5016528;28;1491;-68
2022/05/31 07:06:13;;;;;;;;;;;;;;;;;;5015951;28;1263;-69
2022/05/31 07:08:43;;;;;;;;;;;;;;;;;;5016284;28;1649;-70
2022/05/31 07:11:24;;;;;;;;;;;;;;;;;;5016263;28;1301;-70
2022/05/31 07:14:25;;;;;;;;;;;;;;;;;;5033562;28;1318;-69
2022/05/31 07:17:11;;;;;;;;;;;;;;;;;;5034005;28;616;-70
2022/05/31 07:19:44;;;;;;;;;;;;;;;;;;5016336;28;1914;-70
2022/05/31 07:22:10;;;;;;;;;;;;;;;;;;5015692;28;1334;-70
2022/05/31 07:24:39;;;;;;;;;;;;;;;;;;5016014;28;1412;-70
2022/05/31 07:27:16;;;;;;;;;;;;;;;;;;5015948;28;1344;-69
2022/05/31 07:29:42;;;;;;;;;;;;;;;;;;5015893;28;1102;-70
2022/05/31 07:32:08;;;;;;;;;;;;;;;;;;5016145;28;1192;-70
2022/05/31 07:34:36;;;;;;;;;;;;;;;;;;5015752;28;1432;-69
2022/05/31 07:37:02;;;;;;;;;;;;;;;;;;5015489;28;1274;-69
2022/05/31 07:39:29;;;;;;;;;;;;;;;;;;5015748;28;1914;-70
2022/05/31 07:41:56;;;;;;;;;;;;;;;;;;5015699;28;1449;-69
2022/05/31 07:44:25;;;;;;;;;;;;;;;;;;5015466;28;1424;-70
2022/05/31 07:46:51;;;;;;;;;;;;;;;;;;5015394;28;1097;-69
2022/05/31 07:49:18;;;;;;;;;;;;;;;;;;5015665;28;1173;-70
2022/05/31 07:51:48;;;;;;;;;;;;;;;;;;5033509;28;823;-70
2022/05/31 07:54:33;;;;;;;;;;;;;;;;;;5033648;28;1347;-70
2022/05/31 08:00:21;;;;;;;;;;;;;;;;;;5033234;28;1918;-70
2022/05/31 08:02:47;;;;;;;;;;;;;;;;;;5033279;28;1092;-70
2022/05/31 08:05:13;;;;;;;;;;;;;;;;;;5032983;28;1295;-69
2022/05/31 08:07:41;;;;;;;;;;;;;;;;;;5032757;28;751;-70
2022/05/31 08:10:08;;;;;;;;;;;;;;;;;;5033225;28;938;-70
2022/05/31 08:12:34;;;;;;;;;;;;;;;;;;5032413;28;1221;-70
2022/05/31 08:15:00;;;;;;;;;;;;;;;;;;5032799;28;1378;-70
2022/05/31 08:17:27;;;;;;;;;;;;;;;;;;5014554;28;1386;-70
2022/05/31 08:19:54;;;;;;;;;;;;;;;;;;5032410;28;1915;-70
2022/05/31 08:22:20;;;;;;;;;;;;;;;;;;5032779;28;830;-69
2022/05/31 08:24:47;;;;;;;;;;;;;;;;;;5032732;28;1387;-70
2022/05/31 08:27:14;;;;;;;;;;;;;;;;;;5033112;28;1072;-70
2022/05/31 08:29:40;;;;;;;;;;;;;;;;;;5032676;28;1082;-70
2022/05/31 08:32:06;;;;;;;;;;;;;;;;;;5032614;28;1088;-70
2022/05/31 08:34:33;;;;;;;;;;;;;;;;;;5030277;28;2254;-69
2022/05/31 08:36:59;;;;;;;;;;;;;;;;;;5046983;28;1068;-69
2022/05/31 08:39:25;;;;;;;;;;;;;;;;;;5045585;28;1130;-69
2022/05/31 08:41:53;;;;;;;;;;;;;;;;;;5052461;28;1981;-68
2022/05/31 08:44:34;;;;;;;;;;;;;;;;;;5051934;28;1363;-69
2022/05/31 08:47:01;;;;;;;;;;;;;;;;;;5052333;28;826;-68
2022/05/31 08:52:13;;;;;;;;;;;;;;;;;;5050824;28;1071;-69
2022/05/31 08:57:30;;;;;;;;;;;;;;;;;;5033522;28;952;-68
2022/05/31 08:59:58;;;;;;;;;;;;;;;;;;5052006;28;1918;-68
2022/05/31 09:02:25;;;;;;;;;;;;;;;;;;5051859;28;913;-68
2022/05/31 09:04:53;;;;;;;;;;;;;;;;;;5051899;28;1399;-68
2022/05/31 09:07:20;;;;;;;;;;;;;;;;;;5051585;28;1107;-69
2022/05/31 09:09:47;;;;;;;;;;;;;;;;;;5051846;28;819;-69
2022/05/31 09:12:14;;;;;;;;;;;;;;;;;;5033839;28;1203;-69
2022/05/31 09:14:45;;;;;;;;;;;;;;;;;;5051241;28;1356;-69
2022/05/31 09:17:13;;;;;;;;;;;;;;;;;;5051471;28;1004;-69
2022/05/31 09:19:40;;;;;;;;;;;;;;;;;;5051758;28;1084;-69
2022/05/31 09:22:07;;;;;;;;;;;;;;;;;;5051545;28;1922;-69
2022/05/31 09:24:33;;;;;;;;;;;;;;;;;;5050908;28;1310;-69
2022/05/31 09:27:05;;;;;;;;;;;;;;;;;;5051146;28;1060;-69
2022/05/31 09:29:33;;;;;;;;;;;;;;;;;;5051315;28;1139;-69
2022/05/31 09:32:05;;;;;;;;;;;;;;;;;;5051489;28;755;-69
2022/05/31 09:34:38;;;;;;;;;;;;;;;;;;5051318;28;1321;-69
2022/05/31 09:37:06;;;;;;;;;;;;;;;;;;5051172;28;822;-69
2022/05/31 09:39:34;;;;;;;;;;;;;;;;;;5033141;28;1560;-69
2022/05/31 09:42:01;;;;;;;;;;;;;;;;;;5033147;28;1922;-69
2022/05/31 09:44:28;;;;;;;;;;;;;;;;;;5050895;28;1404;-69
2022/05/31 09:46:56;;;;;;;;;;;;;;;;;;5050565;28;974;-70
2022/05/31 09:49:26;;;;;;;;;;;;;;;;;;5051226;28;1068;-70
2022/05/31 09:51:52;;;;;;;;;;;;;;;;;;5051268;28;848;-70
2022/05/31 09:57:22;;;;;;;;;;;;;;;;;;5051446;28;703;-69
2022/05/31 10:00:04;;;;;;;;;;;;;;;;;;5051204;28;728;-69
2022/05/31 10:02:57;;;;;;;;;;;;;;;;;;5051469;28;762;-69
2022/05/31 10:05:25;;;;;;;;;;;;;;;;;;5050843;28;786;-69
2022/05/31 10:07:51;;;;;;;;;;;;;;;;;;5050204;28;1024;-69
2022/05/31 10:10:18;;;;;;;;;;;;;;;;;;5050704;28;1146;-69
2022/05/31 10:12:49;;;;;;;;;;;;;;;;;;5050708;28;1004;-69
2022/05/31 10:15:29;;;;;;;;;;;;;;;;;;5050511;28;1384;-69
2022/05/31 10:18:00;;;;;;;;;;;;;;;;;;5050537;28;988;-69
2022/05/31 10:20:28;;;;;;;;;;;;;;;;;;5025127;28;1910;-69
2022/05/31 10:22:56;;;;;;;;;;;;;;;;;;5030549;28;787;-69
2022/05/31 10:25:42;;;;;;;;;;;;;;;;;;5030397;28;665;-69
2022/05/31 10:28:29;;;;;;;;;;;;;;;;;;5013684;28;1199;-70
2022/05/31 10:31:02;;;;;;;;;;;;;;;;;;5030483;28;981;-70
2022/05/31 10:33:36;;;;;;;;;;;;;;;;;;5030338;28;1314;-69
2022/05/31 10:36:06;;;;;;;;;;;;;;;;;;5030956;28;929;-70
2022/05/31 10:38:32;;;;;;;;;;;;;;;;;;5030507;28;858;-69
2022/05/31 10:40:59;;;;;;;;;;;;;;;;;;5030472;28;1910;-70
2022/05/31 10:43:36;;;;;;;;;;;;;;;;;;5030060;28;1375;-70
2022/05/31 10:46:04;;;;;;;;;;;;;;;;;;5030201;28;1013;-70
2022/05/31 10:48:30;;;;;;;;;;;;;;;;;;5030134;28;1080;-70
2022/05/31 10:50:57;;;;;;;;;;;;;;;;;;5030417;28;953;-69
2022/05/31 10:53:29;;;;;;;;;;;;;;;;;;5029942;28;1313;-70
2022/05/31 10:55:56;;;;;;;;;;;;;;;;;;5030229;28;1115;-70
2022/05/31 10:58:33;;;;;;;;;;;;;;;;;;5029929;28;1182;-69
2022/05/31 11:01:00;;;;;;;;;;;;;;;;;;5030155;28;1914;-70
2022/05/31 11:03:29;;;;;;;;;;;;;;;;;;5029918;28;1280;-69
2022/05/31 11:05:58;;;;;;;;;;;;;;;;;;5030076;28;1076;-70
2022/05/31 11:11:33;;;;;;;;;;;;;;;;;;5030288;28;807;-70
2022/05/31 11:14:22;;;;;;;;;;;;;;;;;;5030205;28;1361;-70
2022/05/31 11:16:48;;;;;;;;;;;;;;;;;;5026745;28;1069;-69
2022/05/31 11:19:22;;;;;;;;;;;;;;;;;;5029938;28;1104;-69
2022/05/31 11:21:51;;;;;;;;;;;;;;;;;;5029811;28;1923;-69
2022/05/31 11:24:22;;;;;;;;;;;;;;;;;;5029613;28;1283;-70
2022/05/31 11:26:55;;;;;;;;;;;;;;;;;;5029880;28;961;-69
2022/05/31 11:29:27;;;;;;;;;;;;;;;;;;5029866;28;945;-69
2022/05/31 11:31:55;;;;;;;;;;;;;;;;;;5030008;28;1116;-70
2022/05/31 11:34:25;;;;;;;;;;;;;;;;;;5029919;28;1265;-70
2022/05/31 11:36:56;;;;;;;;;;;;;;;;;;5029472;28;1049;-69
2022/05/31 11:39:28;;;;;;;;;;;;;;;;;;5012049;28;867;-70
2022/05/31 11:41:59;;;;;;;;;;;;;;;;;;5029759;28;1918;-70
2022/05/31 11:44:41;;;;;;;;;;;;;;;;;;5029504;28;1407;-69
2022/05/31 11:47:11;;;;;;;;;;;;;;;;;;5031720;28;1115;-69
2022/05/31 11:49:39;;;;;;;;;;;;;;;;;;5033241;28;1076;-69
2022/05/31 11:52:19;;;;;;;;;;;;;;;;;;5033426;28;775;-70
2022/05/31 11:55:25;;;;;;;;;;;;;;;;;;5033413;28;1317;-69
2022/05/31 11:57:40;;;;;;;;;;;;;;;;;;5032515;28;1226;-69
2022/05/31 12:00:07;;;;;;;;;;;;;;;;;;5033315;28;816;-69
2022/05/31 12:02:40;;;;;;;;;;;;;;;;;;5033217;28;1902;-69
2022/05/31 12:05:08;;;;;;;;;;;;;;;;;;5033299;28;1353;-70
2022/05/31 12:07:35;;;;;;;;;;;;;;;;;;5032795;28;1072;-69
2022/05/31 12:10:04;;;;;;;;;;;;;;;;;;5015531;28;1201;-69
2022/05/31 12:12:31;;;;;;;;;;;;;;;;;;5032860;28;878;-69
2022/05/31 12:15:01;;;;;;;;;;;;;;;;;;5032113;28;1456;-70
2022/05/31 12:17:30;;;;;;;;;;;;;;;;;;5014767;28;1103;-69
2022/05/31 12:19:57;;;;;;;;;;;;;;;;;;5033539;28;995;-70
2022/05/31 12:22:25;;;;;;;;;;;;;;;;;;5032690;28;1915;-70
2022/05/31 12:24:52;;;;;;;;;;;;;;;;;;5032910;28;1317;-69
2022/05/31 12:27:21;;;;;;;;;;;;;;;;;;5032914;28;1068;-69
2022/05/31 12:29:50;;;;;;;;;;;;;;;;;;5032670;28;968;-70
2022/05/31 12:32:41;;;;;;;;;;;;;;;;;;5032730;28;787;-69
2022/05/31 12:35:08;;;;;;;;;;;;;;;;;;5032363;28;1388;-69
2022/05/31 12:37:50;;;;;;;;;;;;;;;;;;5014415;28;1068;-69
2022/05/31 12:40:20;;;;;;;;;;;;;;;;;;5032291;28;1059;-69
2022/05/31 12:42:49;;;;;;;;;;;;;;;;;;5032508;28;1918;-70
2022/05/31 12:45:18;;;;;;;;;;;;;;;;;;5032269;28;1315;-70
2022/05/31 12:47:44;;;;;;;;;;;;;;;;;;5032235;28;1068;-70
2022/05/31 12:50:11;;;;;;;;;;;;;;;;;;5014091;28;1861;-69
2022/05/31 12:56:03;;;;;;;;;;;;;;;;;;5032293;28;732;-69
2022/05/31 12:58:41;;;;;;;;;;;;;;;;;;4974057;28;828;-69
2022/05/31 13:01:08;;;;;;;;;;;;;;;;;;4973861;28;1973;-71
2022/05/31 13:03:52;;;;;;;;;;;;;;;;;;5011509;28;1353;-71
2022/05/31 13:06:20;;;;;;;;;;;;;;;;;;5031721;28;962;-69
2022/05/31 13:08:51;;;;;;;;;;;;;;;;;;5031941;28;1416;-69
2022/05/31 13:19:39;;;;;;;;;;;;;;;;;;5031534;28;799;-69
2022/05/31 13:22:07;;;;;;;;;;;;;;;;;;5031496;28;1975;-69
2022/05/31 13:24:34;;;;;;;;;;;;;;;;;;5031340;28;1298;-69
2022/05/31 13:27:00;;;;;;;;;;;;;;;;;;5031232;28;990;-69
2022/05/31 13:29:27;;;;;;;;;;;;;;;;;;5031183;28;1104;-69
2022/05/31 13:31:54;;;;;;;;;;;;;;;;;;5031254;28;945;-70
2022/05/31 13:34:25;;;;;;;;;;;;;;;;;;5031330;28;1275;-69
2022/05/31 13:36:52;;;;;;;;;;;;;;;;;;5031417;28;1123;-69
2022/05/31 13:39:18;;;;;;;;;;;;;;;;;;5031246;28;894;-69
2022/05/31 13:41:46;;;;;;;;;;;;;;;;;;5031215;28;1916;-69
2022/05/31 13:44:12;;;;;;;;;;;;;;;;;;5030884;28;1287;-69
2022/05/31 13:46:40;;;;;;;;;;;;;;;;;;5030524;28;1163;-70
2022/05/31 13:49:07;;;;;;;;;;;;;;;;;;5031278;28;1107;-69
2022/05/31 13:51:34;;;;;;;;;;;;;;;;;;5013121;28;1309;-69
2022/05/31 13:54:11;;;;;;;;;;;;;;;;;;5030810;28;1309;-69
2022/05/31 13:56:38;;;;;;;;;;;;;;;;;;5030854;28;1161;-69
2022/05/31 13:59:05;;;;;;;;;;;;;;;;;;5013161;28;1305;-69
2022/05/31 14:01:32;;;;;;;;;;;;;;;;;;5030709;28;1906;-69
2022/05/31 14:04:04;;;;;;;;;;;;;;;;;;5030627;28;1346;-70
2022/05/31 14:06:30;;;;;;;;;;;;;;;;;;5030445;28;989;-69
2022/05/31 14:08:57;;;;;;;;;;;;;;;;;;5012343;28;1101;-69
2022/05/31 14:11:24;;;;;;;;;;;;;;;;;;5030651;28;972;-69
2022/05/31 14:13:51;;;;;;;;;;;;;;;;;;5030808;28;1345;-69
2022/05/31 14:16:18;;;;;;;;;;;;;;;;;;5029984;28;1503;-69
2022/05/31 14:18:52;;;;;;;;;;;;;;;;;;5030460;28;1126;-69
2022/05/31 14:21:20;;;;;;;;;;;;;;;;;;5030590;28;838;-69
2022/05/31 14:23:46;;;;;;;;;;;;;;;;;;5030149;28;1985;-69
2022/05/31 14:26:12;;;;;;;;;;;;;;;;;;5030130;28;878;-70
2022/05/31 14:28:39;;;;;;;;;;;;;;;;;;5030328;28;1152;-70
2022/05/31 14:31:06;;;;;;;;;;;;;;;;;;5030472;28;1076;-69
2022/05/31 14:33:33;;;;;;;;;;;;;;;;;;5030134;28;1314;-69
2022/05/31 14:36:00;;;;;;;;;;;;;;;;;;5007103;28;1430;-69
2022/05/31 14:38:30;;;;;;;;;;;;;;;;;;4992330;28;1490;-69
2022/05/31 14:40:58;;;;;;;;;;;;;;;;;;5010865;28;1147;-69
2022/05/31 14:43:29;;;;;;;;;;;;;;;;;;5010169;28;1915;-69
2022/05/31 14:45:55;;;;;;;;;;;;;;;;;;5010461;28;1120;-69
2022/05/31 14:48:47;;;;;;;;;;;;;;;;;;5010491;28;854;-69
2022/05/31 14:51:14;;;;;;;;;;;;;;;;;;4978890;28;1017;-69
2022/05/31 14:53:42;;;;;;;;;;;;;;;;;;5010445;28;1295;-69
2022/05/31 14:56:18;;;;;;;;;;;;;;;;;;4992982;28;1294;-70
2022/05/31 14:58:45;;;;;;;;;;;;;;;;;;5010602;28;1175;-69
2022/05/31 15:01:16;;;;;;;;;;;;;;;;;;5010317;28;970;-69
2022/05/31 15:03:43;;;;;;;;;;;;;;;;;;5009924;28;1914;-69
2022/05/31 15:06:12;;;;;;;;;;;;;;;;;;5010099;28;1084;-69
2022/05/31 15:08:39;;;;;;;;;;;;;;;;;;5010250;28;1111;-69
2022/05/31 15:19:29;;;;;;;;;;;;;;;;;;5010162;28;736;-69
2022/05/31 15:21:55;;;;;;;;;;;;;;;;;;5012018;28;2322;-69
2022/05/31 15:24:22;;;;;;;;;;;;;;;;;;5014009;28;1283;-69
2022/05/31 15:26:49;;;;;;;;;;;;;;;;;;4996197;28;1318;-69
2022/05/31 15:29:15;;;;;;;;;;;;;;;;;;5014031;28;1112;-69
2022/05/31 15:31:42;;;;;;;;;;;;;;;;;;5014164;28;1120;-69
2022/05/31 15:34:08;;;;;;;;;;;;;;;;;;5013756;28;1375;-69
2022/05/31 15:36:35;;;;;;;;;;;;;;;;;;4996373;28;1251;-69
2022/05/31 15:39:02;;;;;;;;;;;;;;;;;;5013617;28;856;-70
2022/05/31 15:41:29;;;;;;;;;;;;;;;;;;5013680;28;1081;-70
2022/05/31 15:44:02;;;;;;;;;;;;;;;;;;5013395;28;1981;-69
2022/05/31 15:46:31;;;;;;;;;;;;;;;;;;5013184;28;918;-70
2022/05/31 15:48:57;;;;;;;;;;;;;;;;;;4995821;28;944;-70
2022/05/31 15:51:25;;;;;;;;;;;;;;;;;;5013352;28;1083;-70
2022/05/31 15:53:51;;;;;;;;;;;;;;;;;;5013180;28;1356;-70
2022/05/31 15:56:17;;;;;;;;;;;;;;;;;;4995458;28;1211;-70
2022/05/31 15:58:44;;;;;;;;;;;;;;;;;;5012952;28;1111;-69
2022/05/31 16:01:11;;;;;;;;;;;;;;;;;;5013144;28;1068;-70
2022/05/31 16:03:37;;;;;;;;;;;;;;;;;;5013197;28;1922;-70
2022/05/31 16:06:04;;;;;;;;;;;;;;;;;;5013404;28;1112;-70
2022/05/31 16:08:30;;;;;;;;;;;;;;;;;;5012907;28;934;-70
2022/05/31 16:10:56;;;;;;;;;;;;;;;;;;4995449;28;1379;-70
2022/05/31 16:13:22;;;;;;;;;;;;;;;;;;5012941;28;1358;-70
2022/05/31 16:15:49;;;;;;;;;;;;;;;;;;5012867;28;766;-70
2022/05/31 16:18:17;;;;;;;;;;;;;;;;;;5012655;28;875;-70
2022/05/31 16:20:43;;;;;;;;;;;;;;;;;;4995274;28;843;-70
2022/05/31 16:23:09;;;;;;;;;;;;;;;;;;5012699;28;1918;-70
2022/05/31 16:25:36;;;;;;;;;;;;;;;;;;5004949;28;1563;-70
2022/05/31 16:28:02;;;;;;;;;;;;;;;;;;5032680;28;1139;-70
2022/05/31 16:33:10;;;;;;;;;;;;;;;;;;5013642;28;1343;-70
2022/05/31 16:35:38;;;;;;;;;;;;;;;;;;5033857;28;1084;-69
2022/05/31 16:43:33;;;;;;;;;;;;;;;;;;5032147;28;1989;-70
2022/05/31 16:45:59;;;;;;;;;;;;;;;;;;5032409;28;1177;-69
2022/05/31 16:48:27;;;;;;;;;;;;;;;;;;5032088;28;1127;-69
2022/05/31 16:50:55;;;;;;;;;;;;;;;;;;5032444;28;1131;-69
2022/05/31 16:53:21;;;;;;;;;;;;;;;;;;5014184;28;1335;-70
2022/05/31 16:55:47;;;;;;;;;;;;;;;;;;5032283;28;929;-70
2022/05/31 16:58:14;;;;;;;;;;;;;;;;;;5031843;28;1072;-69
2022/05/31 17:00:40;;;;;;;;;;;;;;;;;;5031963;28;878;-70
2022/05/31 17:03:06;;;;;;;;;;;;;;;;;;5031496;28;1980;-70
2022/05/31 17:05:33;;;;;;;;;;;;;;;;;;5032070;28;711;-70
2022/05/31 17:16:11;;;;;;;;;;;;;;;;;;5031261;28;1028;-70
2022/05/31 17:18:37;;;;;;;;;;;;;;;;;;5014040;28;1449;-70
2022/05/31 17:21:04;;;;;;;;;;;;;;;;;;5031605;28;1068;-70
2022/05/31 17:23:33;;;;;;;;;;;;;;;;;;5031261;28;1975;-70
2022/05/31 17:26:00;;;;;;;;;;;;;;;;;;5031270;28;918;-69
2022/05/31 17:28:26;;;;;;;;;;;;;;;;;;5031281;28;1150;-70
2022/05/31 17:30:52;;;;;;;;;;;;;;;;;;5031488;28;1298;-69
2022/05/31 17:33:20;;;;;;;;;;;;;;;;;;5031300;28;1356;-69
2022/05/31 17:35:46;;;;;;;;;;;;;;;;;;5031600;28;1126;-69
2022/05/31 17:38:13;;;;;;;;;;;;;;;;;;5030814;28;1122;-69
2022/05/31 17:40:41;;;;;;;;;;;;;;;;;;5013669;28;1144;-70
2022/05/31 17:43:07;;;;;;;;;;;;;;;;;;5030471;28;1922;-69
2022/05/31 17:45:33;;;;;;;;;;;;;;;;;;5030666;28;1127;-69
2022/05/31 17:47:59;;;;;;;;;;;;;;;;;;5031013;28;1114;-69
2022/05/31 17:50:25;;;;;;;;;;;;;;;;;;5031332;28;1060;-69
2022/05/31 17:52:52;;;;;;;;;;;;;;;;;;5031164;28;1096;-69
2022/05/31 17:55:19;;;;;;;;;;;;;;;;;;5030880;28;1461;-69
2022/05/31 17:57:46;;;;;;;;;;;;;;;;;;5013510;28;1172;-69
2022/05/31 18:00:13;;;;;;;;;;;;;;;;;;5030910;28;875;-69
2022/05/31 18:02:39;;;;;;;;;;;;;;;;;;5030523;28;1915;-69
2022/05/31 18:05:06;;;;;;;;;;;;;;;;;;5031212;28;1314;-69
2022/05/31 18:07:32;;;;;;;;;;;;;;;;;;5030667;28;1112;-69
2022/05/31 18:09:59;;;;;;;;;;;;;;;;;;5013105;28;1236;-69
2022/05/31 18:12:25;;;;;;;;;;;;;;;;;;5030966;28;1072;-69
2022/05/31 18:14:53;;;;;;;;;;;;;;;;;;5030979;28;1295;-69
2022/05/31 18:17:19;;;;;;;;;;;;;;;;;;5030423;28;1100;-69
2022/05/31 18:19:45;;;;;;;;;;;;;;;;;;5030498;28;996;-69
2022/05/31 18:22:13;;;;;;;;;;;;;;;;;;5012753;28;1158;-69
2022/05/31 18:24:40;;;;;;;;;;;;;;;;;;5030390;28;1918;-69
2022/05/31 18:27:08;;;;;;;;;;;;;;;;;;5030292;28;1499;-69